Terminal Aerodrome Forecast
Issued by NWS Binghamton, NY

Home | Current Version | Previous Version | Text Only | Print | Product List | Glossary On
Versions: 1 2 3 4 5 6 7 8 9 10 11 12 13 14 15 16 17 18 19 20 21 22 23 24 25
000
FTUS41 KBGM 282026 AAA
TAFSYR
TAF AMD
KSYR 282026Z 2820/2918 30005KT P6SM SCT006 OVC015
      TEMPO 2820/2823 5SM BR OVC006
     FM290000 32006KT P6SM OVC015
     FM291100 34005KT P6SM OVC035
     FM291600 32010KT P6SM BKN050=

USA.gov is the U.S. government's official web portal to all federal, state and local government web resources and services.